sensor_id;sensor_type;location;lat;lon;timestamp;P1;durP1;ratioP1;P2;durP2;ratioP2
55210;SDS011;41082;52.822;6.666;2023-07-22T00:00:58;9.95;;;5.45;;
55210;SDS011;41082;52.822;6.666;2023-07-22T00:03:24;14.32;;;5.85;;
55210;SDS011;41082;52.822;6.666;2023-07-22T00:06:01;11.60;;;5.90;;
55210;SDS011;41082;52.822;6.666;2023-07-22T00:08:28;13.88;;;6.32;;
55210;SDS011;41082;52.822;6.666;2023-07-22T00:10:53;10.30;;;5.95;;
55210;SDS011;41082;52.822;6.666;2023-07-22T00:13:19;10.02;;;5.30;;
55210;SDS011;41082;52.822;6.666;2023-07-22T00:15:45;13.80;;;5.95;;
55210;SDS011;41082;52.822;6.666;2023-07-22T00:18:10;13.63;;;6.45;;
55210;SDS011;41082;52.822;6.666;2023-07-22T00:20:36;10.77;;;6.13;;
55210;SDS011;41082;52.822;6.666;2023-07-22T00:23:01;9.27;;;5.78;;
55210;SDS011;41082;52.822;6.666;2023-07-22T00:25:27;9.70;;;6.03;;
55210;SDS011;41082;52.822;6.666;2023-07-22T00:27:52;12.80;;;5.45;;
55210;SDS011;41082;52.822;6.666;2023-07-22T00:30:18;9.30;;;5.68;;
55210;SDS011;41082;52.822;6.666;2023-07-22T00:32:43;7.75;;;5.18;;
55210;SDS011;41082;52.822;6.666;2023-07-22T00:35:09;8.68;;;6.15;;
55210;SDS011;41082;52.822;6.666;2023-07-22T00:37:35;11.52;;;6.53;;
55210;SDS011;41082;52.822;6.666;2023-07-22T00:40:01;11.77;;;6.50;;
55210;SDS011;41082;52.822;6.666;2023-07-22T00:42:30;8.63;;;5.15;;
55210;SDS011;41082;52.822;6.666;2023-07-22T00:44:56;9.48;;;5.82;;
55210;SDS011;41082;52.822;6.666;2023-07-22T00:47:22;8.85;;;5.70;;
55210;SDS011;41082;52.822;6.666;2023-07-22T00:49:48;9.52;;;5.47;;
55210;SDS011;41082;52.822;6.666;2023-07-22T00:52:14;12.70;;;6.05;;
55210;SDS011;41082;52.822;6.666;2023-07-22T00:54:41;10.77;;;6.50;;
55210;SDS011;41082;52.822;6.666;2023-07-22T00:57:07;11.15;;;6.35;;
55210;SDS011;41082;52.822;6.666;2023-07-22T00:59:33;10.02;;;6.22;;
55210;SDS011;41082;52.822;6.666;2023-07-22T01:01:59;10.43;;;6.60;;
55210;SDS011;41082;52.822;6.666;2023-07-22T01:04:25;11.30;;;6.60;;
55210;SDS011;41082;52.822;6.666;2023-07-22T01:06:51;13.52;;;6.60;;
55210;SDS011;41082;52.822;6.666;2023-07-22T01:09:19;10.27;;;5.82;;
55210;SDS011;41082;52.822;6.666;2023-07-22T01:11:45;13.57;;;5.82;;
55210;SDS011;41082;52.822;6.666;2023-07-22T01:14:11;13.25;;;6.30;;
55210;SDS011;41082;52.822;6.666;2023-07-22T01:16:36;11.35;;;6.53;;
55210;SDS011;41082;52.822;6.666;2023-07-22T01:19:02;10.40;;;6.60;;
55210;SDS011;41082;52.822;6.666;2023-07-22T01:21:29;9.57;;;6.43;;
55210;SDS011;41082;52.822;6.666;2023-07-22T01:23:57;10.75;;;6.43;;
55210;SDS011;41082;52.822;6.666;2023-07-22T01:26:23;10.80;;;6.35;;
55210;SDS011;41082;52.822;6.666;2023-07-22T01:28:48;10.80;;;6.47;;
55210;SDS011;41082;52.822;6.666;2023-07-22T01:31:14;9.05;;;5.78;;
55210;SDS011;41082;52.822;6.666;2023-07-22T01:33:39;10.32;;;6.80;;
55210;SDS011;41082;52.822;6.666;2023-07-22T01:36:05;10.48;;;6.53;;
55210;SDS011;41082;52.822;6.666;2023-07-22T01:38:30;10.48;;;6.93;;
55210;SDS011;41082;52.822;6.666;2023-07-22T01:40:56;10.10;;;6.22;;
55210;SDS011;41082;52.822;6.666;2023-07-22T01:43:22;12.18;;;6.28;;
55210;SDS011;41082;52.822;6.666;2023-07-22T01:45:47;10.10;;;6.72;;
55210;SDS011;41082;52.822;6.666;2023-07-22T01:48:13;13.43;;;7.35;;
55210;SDS011;41082;52.822;6.666;2023-07-22T01:50:39;11.18;;;6.93;;
55210;SDS011;41082;52.822;6.666;2023-07-22T01:53:04;11.15;;;6.22;;
55210;SDS011;41082;52.822;6.666;2023-07-22T01:55:30;11.80;;;6.90;;
55210;SDS011;41082;52.822;6.666;2023-07-22T01:57:57;10.45;;;6.68;;
55210;SDS011;41082;52.822;6.666;2023-07-22T02:00:23;10.98;;;6.22;;
55210;SDS011;41082;52.822;6.666;2023-07-22T02:02:49;9.80;;;6.65;;
55210;SDS011;41082;52.822;6.666;2023-07-22T02:05:15;9.15;;;6.85;;
55210;SDS011;41082;52.822;6.666;2023-07-22T02:07:40;12.60;;;6.90;;
55210;SDS011;41082;52.822;6.666;2023-07-22T02:10:06;15.55;;;7.10;;
55210;SDS011;41082;52.822;6.666;2023-07-22T02:12:33;11.27;;;6.55;;
55210;SDS011;41082;52.822;6.666;2023-07-22T02:14:59;11.75;;;6.63;;
55210;SDS011;41082;52.822;6.666;2023-07-22T02:17:24;9.73;;;6.68;;
55210;SDS011;41082;52.822;6.666;2023-07-22T02:19:50;11.23;;;6.97;;
55210;SDS011;41082;52.822;6.666;2023-07-22T02:22:17;10.10;;;6.50;;
55210;SDS011;41082;52.822;6.666;2023-07-22T02:24:42;14.23;;;6.97;;
55210;SDS011;41082;52.822;6.666;2023-07-22T02:27:08;10.18;;;6.88;;
55210;SDS011;41082;52.822;6.666;2023-07-22T02:29:34;9.20;;;6.03;;
55210;SDS011;41082;52.822;6.666;2023-07-22T02:31:59;11.02;;;6.15;;
55210;SDS011;41082;52.822;6.666;2023-07-22T02:34:26;8.93;;;5.72;;
55210;SDS011;41082;52.822;6.666;2023-07-22T02:36:51;10.65;;;6.82;;
55210;SDS011;41082;52.822;6.666;2023-07-22T02:39:17;10.13;;;6.82;;
55210;SDS011;41082;52.822;6.666;2023-07-22T02:41:43;11.13;;;6.85;;
55210;SDS011;41082;52.822;6.666;2023-07-22T02:44:08;10.48;;;6.70;;
55210;SDS011;41082;52.822;6.666;2023-07-22T02:46:34;10.63;;;6.85;;
55210;SDS011;41082;52.822;6.666;2023-07-22T02:48:59;11.73;;;7.18;;
55210;SDS011;41082;52.822;6.666;2023-07-22T02:51:25;11.50;;;6.85;;
55210;SDS011;41082;52.822;6.666;2023-07-22T02:53:50;12.40;;;7.03;;
55210;SDS011;41082;52.822;6.666;2023-07-22T02:56:16;10.38;;;6.57;;
55210;SDS011;41082;52.822;6.666;2023-07-22T02:58:42;10.40;;;6.80;;
55210;SDS011;41082;52.822;6.666;2023-07-22T03:01:08;12.07;;;7.45;;
55210;SDS011;41082;52.822;6.666;2023-07-22T03:03:35;12.52;;;6.90;;
55210;SDS011;41082;52.822;6.666;2023-07-22T03:06:01;12.85;;;8.00;;
55210;SDS011;41082;52.822;6.666;2023-07-22T03:08:28;14.27;;;6.85;;
55210;SDS011;41082;52.822;6.666;2023-07-22T03:10:54;12.65;;;8.10;;
55210;SDS011;41082;52.822;6.666;2023-07-22T03:13:20;14.32;;;8.52;;
55210;SDS011;41082;52.822;6.666;2023-07-22T03:15:46;12.45;;;7.68;;
55210;SDS011;41082;52.822;6.666;2023-07-22T03:18:12;12.73;;;7.60;;
55210;SDS011;41082;52.822;6.666;2023-07-22T03:20:38;12.35;;;7.82;;
55210;SDS011;41082;52.822;6.666;2023-07-22T03:23:04;12.68;;;7.97;;
55210;SDS011;41082;52.822;6.666;2023-07-22T03:25:31;11.90;;;7.90;;
55210;SDS011;41082;52.822;6.666;2023-07-22T03:27:58;12.88;;;8.13;;
55210;SDS011;41082;52.822;6.666;2023-07-22T03:30:28;12.35;;;7.57;;
55210;SDS011;41082;52.822;6.666;2023-07-22T03:32:53;14.88;;;8.75;;
55210;SDS011;41082;52.822;6.666;2023-07-22T03:35:19;10.80;;;7.28;;
55210;SDS011;41082;52.822;6.666;2023-07-22T03:37:45;14.68;;;8.18;;
55210;SDS011;41082;52.822;6.666;2023-07-22T03:40:10;11.10;;;6.72;;
55210;SDS011;41082;52.822;6.666;2023-07-22T03:42:39;12.18;;;7.70;;
55210;SDS011;41082;52.822;6.666;2023-07-22T03:45:06;12.25;;;8.57;;
55210;SDS011;41082;52.822;6.666;2023-07-22T03:47:33;13.30;;;8.05;;
55210;SDS011;41082;52.822;6.666;2023-07-22T03:49:59;12.18;;;7.43;;
55210;SDS011;41082;52.822;6.666;2023-07-22T03:52:24;15.75;;;8.30;;
55210;SDS011;41082;52.822;6.666;2023-07-22T03:54:50;14.95;;;8.50;;
55210;SDS011;41082;52.822;6.666;2023-07-22T03:57:15;16.05;;;8.93;;
55210;SDS011;41082;52.822;6.666;2023-07-22T03:59:41;13.77;;;8.05;;
55210;SDS011;41082;52.822;6.666;2023-07-22T04:02:06;12.95;;;8.15;;
55210;SDS011;41082;52.822;6.666;2023-07-22T04:04:33;14.60;;;8.82;;
55210;SDS011;41082;52.822;6.666;2023-07-22T04:06:59;16.15;;;8.43;;
55210;SDS011;41082;52.822;6.666;2023-07-22T04:09:25;13.18;;;8.57;;
55210;SDS011;41082;52.822;6.666;2023-07-22T04:11:52;12.25;;;8.10;;
55210;SDS011;41082;52.822;6.666;2023-07-22T04:14:18;14.68;;;8.95;;
55210;SDS011;41082;52.822;6.666;2023-07-22T04:16:43;14.43;;;9.05;;
55210;SDS011;41082;52.822;6.666;2023-07-22T04:19:09;13.90;;;8.52;;
55210;SDS011;41082;52.822;6.666;2023-07-22T04:21:34;14.27;;;8.18;;
55210;SDS011;41082;52.822;6.666;2023-07-22T04:24:00;13.15;;;8.20;;
55210;SDS011;41082;52.822;6.666;2023-07-22T04:26:25;12.98;;;8.77;;
55210;SDS011;41082;52.822;6.666;2023-07-22T04:28:51;13.43;;;8.38;;
55210;SDS011;41082;52.822;6.666;2023-07-22T04:31:17;14.68;;;8.90;;
55210;SDS011;41082;52.822;6.666;2023-07-22T04:33:43;15.05;;;8.43;;
55210;SDS011;41082;52.822;6.666;2023-07-22T04:36:09;12.73;;;8.50;;
55210;SDS011;41082;52.822;6.666;2023-07-22T04:38:34;12.63;;;8.52;;
55210;SDS011;41082;52.822;6.666;2023-07-22T04:41:02;16.00;;;9.35;;
55210;SDS011;41082;52.822;6.666;2023-07-22T04:43:28;12.45;;;8.65;;
55210;SDS011;41082;52.822;6.666;2023-07-22T04:45:54;15.20;;;9.57;;
55210;SDS011;41082;52.822;6.666;2023-07-22T04:48:20;18.75;;;9.18;;
55210;SDS011;41082;52.822;6.666;2023-07-22T04:50:49;13.57;;;8.05;;
55210;SDS011;41082;52.822;6.666;2023-07-22T04:53:16;15.00;;;9.20;;
55210;SDS011;41082;52.822;6.666;2023-07-22T04:55:42;13.70;;;9.13;;
55210;SDS011;41082;52.822;6.666;2023-07-22T04:58:08;13.57;;;8.75;;
55210;SDS011;41082;52.822;6.666;2023-07-22T05:00:35;13.00;;;8.88;;
55210;SDS011;41082;52.822;6.666;2023-07-22T05:03:02;13.68;;;9.18;;
55210;SDS011;41082;52.822;6.666;2023-07-22T05:05:28;14.55;;;8.70;;
55210;SDS011;41082;52.822;6.666;2023-07-22T05:07:54;15.40;;;8.35;;
55210;SDS011;41082;52.822;6.666;2023-07-22T05:10:20;12.10;;;8.45;;
55210;SDS011;41082;52.822;6.666;2023-07-22T05:12:45;13.75;;;9.10;;
55210;SDS011;41082;52.822;6.666;2023-07-22T05:15:11;11.50;;;8.32;;
55210;SDS011;41082;52.822;6.666;2023-07-22T05:17:38;12.93;;;8.50;;
55210;SDS011;41082;52.822;6.666;2023-07-22T05:20:04;11.35;;;8.38;;
55210;SDS011;41082;52.822;6.666;2023-07-22T05:22:37;13.43;;;8.13;;
55210;SDS011;41082;52.822;6.666;2023-07-22T05:25:04;14.27;;;9.15;;
55210;SDS011;41082;52.822;6.666;2023-07-22T05:27:30;15.18;;;8.95;;
55210;SDS011;41082;52.822;6.666;2023-07-22T05:29:56;13.90;;;8.82;;
55210;SDS011;41082;52.822;6.666;2023-07-22T05:32:22;13.43;;;8.13;;
55210;SDS011;41082;52.822;6.666;2023-07-22T05:34:47;10.60;;;7.70;;
55210;SDS011;41082;52.822;6.666;2023-07-22T05:37:13;14.23;;;8.32;;
55210;SDS011;41082;52.822;6.666;2023-07-22T05:39:38;12.05;;;7.82;;
55210;SDS011;41082;52.822;6.666;2023-07-22T05:42:04;12.75;;;8.23;;
55210;SDS011;41082;52.822;6.666;2023-07-22T05:44:30;11.85;;;7.13;;
55210;SDS011;41082;52.822;6.666;2023-07-22T05:46:55;14.43;;;8.13;;
55210;SDS011;41082;52.822;6.666;2023-07-22T05:49:21;16.55;;;8.30;;
55210;SDS011;41082;52.822;6.666;2023-07-22T05:51:47;12.23;;;8.10;;
55210;SDS011;41082;52.822;6.666;2023-07-22T05:54:13;11.65;;;7.65;;
55210;SDS011;41082;52.822;6.666;2023-07-22T05:56:39;12.48;;;8.18;;
55210;SDS011;41082;52.822;6.666;2023-07-22T05:59:05;13.05;;;7.97;;
55210;SDS011;41082;52.822;6.666;2023-07-22T06:01:30;14.55;;;8.90;;
55210;SDS011;41082;52.822;6.666;2023-07-22T06:03:56;13.48;;;8.32;;
55210;SDS011;41082;52.822;6.666;2023-07-22T06:06:22;12.75;;;8.32;;
55210;SDS011;41082;52.822;6.666;2023-07-22T06:08:48;12.82;;;8.27;;
55210;SDS011;41082;52.822;6.666;2023-07-22T06:11:13;12.55;;;8.38;;
55210;SDS011;41082;52.822;6.666;2023-07-22T06:13:39;13.90;;;8.95;;
55210;SDS011;41082;52.822;6.666;2023-07-22T06:16:05;11.15;;;8.77;;
55210;SDS011;41082;52.822;6.666;2023-07-22T06:18:30;16.58;;;9.82;;
55210;SDS011;41082;52.822;6.666;2023-07-22T06:20:56;12.70;;;9.40;;
55210;SDS011;41082;52.822;6.666;2023-07-22T06:23:21;16.33;;;9.07;;
55210;SDS011;41082;52.822;6.666;2023-07-22T06:25:47;12.55;;;9.30;;
55210;SDS011;41082;52.822;6.666;2023-07-22T06:28:13;15.00;;;10.40;;
55210;SDS011;41082;52.822;6.666;2023-07-22T06:30:38;16.83;;;10.45;;
55210;SDS011;41082;52.822;6.666;2023-07-22T06:33:04;13.80;;;9.90;;
55210;SDS011;41082;52.822;6.666;2023-07-22T06:35:29;15.73;;;11.40;;
55210;SDS011;41082;52.822;6.666;2023-07-22T06:37:55;16.80;;;10.73;;
55210;SDS011;41082;52.822;6.666;2023-07-22T06:40:20;17.17;;;10.57;;
55210;SDS011;41082;52.822;6.666;2023-07-22T06:42:46;20.15;;;12.40;;
55210;SDS011;41082;52.822;6.666;2023-07-22T06:45:12;16.92;;;11.85;;
55210;SDS011;41082;52.822;6.666;2023-07-22T06:47:37;22.45;;;12.98;;
55210;SDS011;41082;52.822;6.666;2023-07-22T06:50:03;18.17;;;12.50;;
55210;SDS011;41082;52.822;6.666;2023-07-22T06:52:29;21.25;;;11.80;;
55210;SDS011;41082;52.822;6.666;2023-07-22T06:54:56;17.70;;;12.13;;
55210;SDS011;41082;52.822;6.666;2023-07-22T06:57:21;17.27;;;12.27;;
55210;SDS011;41082;52.822;6.666;2023-07-22T06:59:47;17.17;;;11.68;;
55210;SDS011;41082;52.822;6.666;2023-07-22T07:02:13;20.45;;;13.50;;
55210;SDS011;41082;52.822;6.666;2023-07-22T07:04:38;17.52;;;12.25;;
55210;SDS011;41082;52.822;6.666;2023-07-22T07:07:04;17.27;;;12.23;;
55210;SDS011;41082;52.822;6.666;2023-07-22T07:09:30;16.02;;;11.75;;
55210;SDS011;41082;52.822;6.666;2023-07-22T07:11:55;18.55;;;12.82;;
55210;SDS011;41082;52.822;6.666;2023-07-22T07:14:24;19.08;;;12.23;;
55210;SDS011;41082;52.822;6.666;2023-07-22T07:16:50;18.45;;;12.57;;
55210;SDS011;41082;52.822;6.666;2023-07-22T07:19:15;19.70;;;12.73;;
55210;SDS011;41082;52.822;6.666;2023-07-22T07:21:41;16.55;;;11.23;;
55210;SDS011;41082;52.822;6.666;2023-07-22T07:24:07;16.90;;;11.52;;
55210;SDS011;41082;52.822;6.666;2023-07-22T07:26:32;13.40;;;11.18;;
55210;SDS011;41082;52.822;6.666;2023-07-22T07:28:58;16.42;;;11.50;;
55210;SDS011;41082;52.822;6.666;2023-07-22T07:31:24;17.98;;;11.43;;
55210;SDS011;41082;52.822;6.666;2023-07-22T07:33:50;17.25;;;11.45;;
55210;SDS011;41082;52.822;6.666;2023-07-22T07:36:16;17.85;;;11.50;;
55210;SDS011;41082;52.822;6.666;2023-07-22T07:38:42;17.67;;;11.90;;
55210;SDS011;41082;52.822;6.666;2023-07-22T07:41:08;15.90;;;11.52;;
55210;SDS011;41082;52.822;6.666;2023-07-22T07:43:41;17.15;;;11.32;;
55210;SDS011;41082;52.822;6.666;2023-07-22T07:46:24;14.95;;;11.07;;
55210;SDS011;41082;52.822;6.666;2023-07-22T07:48:52;17.73;;;12.40;;
55210;SDS011;41082;52.822;6.666;2023-07-22T07:51:21;15.40;;;11.23;;
55210;SDS011;41082;52.822;6.666;2023-07-22T07:53:47;16.45;;;11.05;;
55210;SDS011;41082;52.822;6.666;2023-07-22T07:56:14;16.38;;;12.00;;
55210;SDS011;41082;52.822;6.666;2023-07-22T07:58:41;15.50;;;11.55;;
55210;SDS011;41082;52.822;6.666;2023-07-22T08:01:07;17.58;;;10.43;;
55210;SDS011;41082;52.822;6.666;2023-07-22T08:03:33;15.68;;;10.88;;
55210;SDS011;41082;52.822;6.666;2023-07-22T08:06:00;14.00;;;11.27;;
55210;SDS011;41082;52.822;6.666;2023-07-22T08:08:27;13.43;;;10.10;;
55210;SDS011;41082;52.822;6.666;2023-07-22T08:13:25;15.15;;;11.25;;
55210;SDS011;41082;52.822;6.666;2023-07-22T08:15:51;12.70;;;9.90;;
55210;SDS011;41082;52.822;6.666;2023-07-22T08:18:17;12.73;;;10.70;;
55210;SDS011;41082;52.822;6.666;2023-07-22T08:20:43;14.80;;;10.65;;
55210;SDS011;41082;52.822;6.666;2023-07-22T08:23:08;13.27;;;10.05;;
55210;SDS011;41082;52.822;6.666;2023-07-22T08:25:34;13.45;;;10.15;;
55210;SDS011;41082;52.822;6.666;2023-07-22T08:27:59;21.08;;;11.73;;
55210;SDS011;41082;52.822;6.666;2023-07-22T08:30:25;15.05;;;10.52;;
55210;SDS011;41082;52.822;6.666;2023-07-22T08:32:50;14.48;;;10.15;;
55210;SDS011;41082;52.822;6.666;2023-07-22T08:35:16;14.02;;;9.68;;
55210;SDS011;41082;52.822;6.666;2023-07-22T08:37:42;13.25;;;9.48;;
55210;SDS011;41082;52.822;6.666;2023-07-22T08:40:08;16.08;;;10.05;;
55210;SDS011;41082;52.822;6.666;2023-07-22T08:42:35;15.43;;;10.27;;
55210;SDS011;41082;52.822;6.666;2023-07-22T08:45:02;13.88;;;10.05;;
55210;SDS011;41082;52.822;6.666;2023-07-22T08:47:31;12.85;;;9.73;;
55210;SDS011;41082;52.822;6.666;2023-07-22T08:49:58;13.88;;;10.05;;
55210;SDS011;41082;52.822;6.666;2023-07-22T08:52:27;14.32;;;9.90;;
55210;SDS011;41082;52.822;6.666;2023-07-22T08:54:53;13.30;;;10.32;;
55210;SDS011;41082;52.822;6.666;2023-07-22T08:57:19;16.20;;;10.75;;
55210;SDS011;41082;52.822;6.666;2023-07-22T08:59:46;13.27;;;10.27;;
55210;SDS011;41082;52.822;6.666;2023-07-22T09:02:13;14.60;;;9.45;;
55210;SDS011;41082;52.822;6.666;2023-07-22T09:04:39;14.95;;;9.38;;
55210;SDS011;41082;52.822;6.666;2023-07-22T09:07:07;13.25;;;9.45;;
55210;SDS011;41082;52.822;6.666;2023-07-22T09:09:33;13.63;;;9.23;;
55210;SDS011;41082;52.822;6.666;2023-07-22T09:11:59;14.68;;;8.77;;
55210;SDS011;41082;52.822;6.666;2023-07-22T09:14:26;14.20;;;9.45;;
55210;SDS011;41082;52.822;6.666;2023-07-22T09:16:52;12.95;;;8.52;;
55210;SDS011;41082;52.822;6.666;2023-07-22T09:19:18;12.27;;;9.02;;
55210;SDS011;41082;52.822;6.666;2023-07-22T09:21:44;13.90;;;9.25;;
55210;SDS011;41082;52.822;6.666;2023-07-22T09:24:19;14.45;;;9.02;;
55210;SDS011;41082;52.822;6.666;2023-07-22T09:26:48;10.75;;;7.38;;
55210;SDS011;41082;52.822;6.666;2023-07-22T09:29:14;11.60;;;7.30;;
55210;SDS011;41082;52.822;6.666;2023-07-22T09:31:50;9.38;;;7.00;;
55210;SDS011;41082;52.822;6.666;2023-07-22T09:34:17;12.93;;;7.97;;
55210;SDS011;41082;52.822;6.666;2023-07-22T09:36:52;9.73;;;7.32;;
55210;SDS011;41082;52.822;6.666;2023-07-22T09:39:19;12.25;;;7.07;;
55210;SDS011;41082;52.822;6.666;2023-07-22T09:41:46;9.50;;;7.03;;
55210;SDS011;41082;52.822;6.666;2023-07-22T09:44:11;10.30;;;7.45;;
55210;SDS011;41082;52.822;6.666;2023-07-22T09:46:37;11.00;;;7.35;;
55210;SDS011;41082;52.822;6.666;2023-07-22T09:49:03;10.15;;;6.93;;
55210;SDS011;41082;52.822;6.666;2023-07-22T09:51:34;9.20;;;6.78;;
55210;SDS011;41082;52.822;6.666;2023-07-22T09:54:02;7.85;;;5.45;;
55210;SDS011;41082;52.822;6.666;2023-07-22T09:56:28;9.77;;;5.95;;
55210;SDS011;41082;52.822;6.666;2023-07-22T09:58:54;6.30;;;4.95;;
55210;SDS011;41082;52.822;6.666;2023-07-22T10:01:22;7.18;;;5.07;;
55210;SDS011;41082;52.822;6.666;2023-07-22T10:03:55;7.18;;;4.60;;
55210;SDS011;41082;52.822;6.666;2023-07-22T10:06:26;4.93;;;3.50;;
55210;SDS011;41082;52.822;6.666;2023-07-22T10:08:52;4.38;;;2.33;;
55210;SDS011;41082;52.822;6.666;2023-07-22T10:11:22;3.75;;;2.13;;
55210;SDS011;41082;52.822;6.666;2023-07-22T10:13:53;4.33;;;2.27;;
55210;SDS011;41082;52.822;6.666;2023-07-22T10:16:19;5.43;;;2.78;;
55210;SDS011;41082;52.822;6.666;2023-07-22T10:18:45;4.65;;;3.00;;
55210;SDS011;41082;52.822;6.666;2023-07-22T10:21:13;5.32;;;2.78;;
55210;SDS011;41082;52.822;6.666;2023-07-22T10:23:39;3.50;;;2.33;;
55210;SDS011;41082;52.822;6.666;2023-07-22T10:26:05;5.25;;;2.85;;
55210;SDS011;41082;52.822;6.666;2023-07-22T10:28:32;4.10;;;2.38;;
55210;SDS011;41082;52.822;6.666;2023-07-22T10:30:58;4.50;;;2.78;;
55210;SDS011;41082;52.822;6.666;2023-07-22T10:33:24;4.68;;;2.47;;
55210;SDS011;41082;52.822;6.666;2023-07-22T10:36:07;3.70;;;2.83;;
55210;SDS011;41082;52.822;6.666;2023-07-22T10:38:34;4.97;;;2.72;;
55210;SDS011;41082;52.822;6.666;2023-07-22T10:41:01;5.15;;;2.60;;
55210;SDS011;41082;52.822;6.666;2023-07-22T10:43:36;3.60;;;3.10;;
55210;SDS011;41082;52.822;6.666;2023-07-22T10:46:05;4.20;;;3.65;;
55210;SDS011;41082;52.822;6.666;2023-07-22T10:48:37;6.32;;;3.83;;
55210;SDS011;41082;52.822;6.666;2023-07-22T10:51:05;6.93;;;4.40;;
55210;SDS011;41082;52.822;6.666;2023-07-22T10:53:40;6.32;;;4.22;;
55210;SDS011;41082;52.822;6.666;2023-07-22T10:56:21;5.07;;;3.58;;
55210;SDS011;41082;52.822;6.666;2023-07-22T11:06:31;9.55;;;5.32;;
55210;SDS011;41082;52.822;6.666;2023-07-22T11:08:56;7.78;;;6.05;;
55210;SDS011;41082;52.822;6.666;2023-07-22T11:11:35;9.25;;;6.05;;
55210;SDS011;41082;52.822;6.666;2023-07-22T11:14:20;9.80;;;6.47;;
55210;SDS011;41082;52.822;6.666;2023-07-22T11:16:46;10.57;;;7.22;;
55210;SDS011;41082;52.822;6.666;2023-07-22T11:19:13;9.60;;;6.63;;
55210;SDS011;41082;52.822;6.666;2023-07-22T11:21:40;7.88;;;6.30;;
55210;SDS011;41082;52.822;6.666;2023-07-22T11:24:07;6.70;;;5.90;;
55210;SDS011;41082;52.822;6.666;2023-07-22T11:26:33;10.88;;;7.65;;
55210;SDS011;41082;52.822;6.666;2023-07-22T11:29:02;9.60;;;7.68;;
55210;SDS011;41082;52.822;6.666;2023-07-22T11:31:35;11.15;;;6.03;;
55210;SDS011;41082;52.822;6.666;2023-07-22T11:34:03;7.82;;;5.97;;
55210;SDS011;41082;52.822;6.666;2023-07-22T11:36:29;6.72;;;5.10;;
55210;SDS011;41082;52.822;6.666;2023-07-22T11:39:02;4.95;;;4.00;;
55210;SDS011;41082;52.822;6.666;2023-07-22T11:41:33;6.88;;;5.07;;
55210;SDS011;41082;52.822;6.666;2023-07-22T11:44:00;6.13;;;5.50;;
55210;SDS011;41082;52.822;6.666;2023-07-22T11:46:27;7.93;;;6.47;;
55210;SDS011;41082;52.822;6.666;2023-07-22T11:48:53;7.43;;;6.25;;
55210;SDS011;41082;52.822;6.666;2023-07-22T11:51:23;9.90;;;6.80;;
55210;SDS011;41082;52.822;6.666;2023-07-22T11:53:50;8.93;;;6.95;;
55210;SDS011;41082;52.822;6.666;2023-07-22T11:56:26;10.13;;;7.15;;
55210;SDS011;41082;52.822;6.666;2023-07-22T11:58:53;8.88;;;6.95;;
55210;SDS011;41082;52.822;6.666;2023-07-22T12:01:20;6.88;;;6.18;;
55210;SDS011;41082;52.822;6.666;2023-07-22T12:03:46;7.43;;;6.38;;
55210;SDS011;41082;52.822;6.666;2023-07-22T12:06:12;7.43;;;6.50;;
55210;SDS011;41082;52.822;6.666;2023-07-22T12:08:48;7.05;;;6.35;;
55210;SDS011;41082;52.822;6.666;2023-07-22T12:13:47;10.00;;;7.38;;
55210;SDS011;41082;52.822;6.666;2023-07-22T12:16:20;9.20;;;7.40;;
55210;SDS011;41082;52.822;6.666;2023-07-22T12:18:49;9.07;;;6.22;;
55210;SDS011;41082;52.822;6.666;2023-07-22T12:21:15;6.07;;;5.47;;
55210;SDS011;41082;52.822;6.666;2023-07-22T12:23:41;8.77;;;6.78;;
55210;SDS011;41082;52.822;6.666;2023-07-22T12:26:07;8.82;;;6.65;;
55210;SDS011;41082;52.822;6.666;2023-07-22T12:28:33;7.88;;;6.88;;
55210;SDS011;41082;52.822;6.666;2023-07-22T12:30:59;8.98;;;6.60;;
55210;SDS011;41082;52.822;6.666;2023-07-22T12:33:25;8.93;;;6.57;;
55210;SDS011;41082;52.822;6.666;2023-07-22T12:35:51;9.00;;;6.32;;
55210;SDS011;41082;52.822;6.666;2023-07-22T12:38:19;9.25;;;5.75;;
55210;SDS011;41082;52.822;6.666;2023-07-22T12:40:45;6.15;;;5.55;;
55210;SDS011;41082;52.822;6.666;2023-07-22T12:43:11;5.93;;;5.20;;
55210;SDS011;41082;52.822;6.666;2023-07-22T12:45:36;6.07;;;4.72;;
55210;SDS011;41082;52.822;6.666;2023-07-22T12:48:02;7.00;;;5.47;;
55210;SDS011;41082;52.822;6.666;2023-07-22T12:50:30;5.38;;;4.88;;
55210;SDS011;41082;52.822;6.666;2023-07-22T12:52:56;6.00;;;5.18;;
55210;SDS011;41082;52.822;6.666;2023-07-22T12:55:25;5.88;;;5.28;;
55210;SDS011;41082;52.822;6.666;2023-07-22T12:57:51;6.75;;;5.18;;
55210;SDS011;41082;52.822;6.666;2023-07-22T13:00:17;6.07;;;4.70;;
55210;SDS011;41082;52.822;6.666;2023-07-22T13:02:42;7.93;;;5.35;;
55210;SDS011;41082;52.822;6.666;2023-07-22T13:05:08;5.72;;;5.18;;
55210;SDS011;41082;52.822;6.666;2023-07-22T13:07:34;6.97;;;6.30;;
55210;SDS011;41082;52.822;6.666;2023-07-22T13:10:00;8.57;;;6.45;;
55210;SDS011;41082;52.822;6.666;2023-07-22T13:12:28;6.90;;;5.53;;
55210;SDS011;41082;52.822;6.666;2023-07-22T13:14:54;8.30;;;5.80;;
55210;SDS011;41082;52.822;6.666;2023-07-22T13:17:20;7.05;;;5.97;;
55210;SDS011;41082;52.822;6.666;2023-07-22T13:19:46;6.75;;;6.15;;
55210;SDS011;41082;52.822;6.666;2023-07-22T13:22:11;6.57;;;5.93;;
55210;SDS011;41082;52.822;6.666;2023-07-22T13:24:37;6.30;;;5.70;;
55210;SDS011;41082;52.822;6.666;2023-07-22T13:27:03;6.70;;;5.90;;
55210;SDS011;41082;52.822;6.666;2023-07-22T13:29:29;5.95;;;5.35;;
55210;SDS011;41082;52.822;6.666;2023-07-22T13:31:56;6.15;;;5.55;;
55210;SDS011;41082;52.822;6.666;2023-07-22T13:34:21;7.00;;;5.28;;
55210;SDS011;41082;52.822;6.666;2023-07-22T13:36:47;6.70;;;5.78;;
55210;SDS011;41082;52.822;6.666;2023-07-22T13:39:13;6.07;;;5.45;;
55210;SDS011;41082;52.822;6.666;2023-07-22T13:41:38;7.75;;;5.05;;
55210;SDS011;41082;52.822;6.666;2023-07-22T13:44:04;7.22;;;4.70;;
55210;SDS011;41082;52.822;6.666;2023-07-22T13:46:30;6.65;;;4.30;;
55210;SDS011;41082;52.822;6.666;2023-07-22T13:48:56;8.68;;;4.68;;
55210;SDS011;41082;52.822;6.666;2023-07-22T13:51:22;5.97;;;4.97;;
55210;SDS011;41082;52.822;6.666;2023-07-22T13:53:47;7.72;;;4.38;;
55210;SDS011;41082;52.822;6.666;2023-07-22T13:56:13;6.35;;;4.65;;
55210;SDS011;41082;52.822;6.666;2023-07-22T13:58:38;7.40;;;4.63;;
55210;SDS011;41082;52.822;6.666;2023-07-22T14:01:04;5.63;;;4.65;;
55210;SDS011;41082;52.822;6.666;2023-07-22T14:03:30;5.43;;;4.93;;
55210;SDS011;41082;52.822;6.666;2023-07-22T14:05:56;7.63;;;5.15;;
55210;SDS011;41082;52.822;6.666;2023-07-22T14:08:22;7.90;;;5.45;;
55210;SDS011;41082;52.822;6.666;2023-07-22T14:10:47;8.32;;;5.22;;
55210;SDS011;41082;52.822;6.666;2023-07-22T14:13:13;5.72;;;5.13;;
55210;SDS011;41082;52.822;6.666;2023-07-22T14:15:38;7.05;;;5.57;;
55210;SDS011;41082;52.822;6.666;2023-07-22T14:18:04;11.98;;;6.18;;
55210;SDS011;41082;52.822;6.666;2023-07-22T14:20:30;6.90;;;5.57;;
55210;SDS011;41082;52.822;6.666;2023-07-22T14:22:56;8.43;;;5.55;;
55210;SDS011;41082;52.822;6.666;2023-07-22T14:25:22;8.43;;;5.80;;
55210;SDS011;41082;52.822;6.666;2023-07-22T14:27:47;6.78;;;5.97;;
55210;SDS011;41082;52.822;6.666;2023-07-22T14:30:13;6.65;;;5.82;;
55210;SDS011;41082;52.822;6.666;2023-07-22T14:32:39;6.47;;;5.80;;
55210;SDS011;41082;52.822;6.666;2023-07-22T14:35:05;7.60;;;6.00;;
55210;SDS011;41082;52.822;6.666;2023-07-22T14:37:31;9.82;;;6.60;;
55210;SDS011;41082;52.822;6.666;2023-07-22T14:39:57;6.18;;;5.57;;
55210;SDS011;41082;52.822;6.666;2023-07-22T14:42:22;6.97;;;6.00;;
55210;SDS011;41082;52.822;6.666;2023-07-22T14:44:48;7.10;;;6.05;;
55210;SDS011;41082;52.822;6.666;2023-07-22T14:47:13;7.25;;;5.97;;